Selah, Washington
Current Conditions -  °F | °C
As of 12:56 PM on Friday 19 Dec 2014 (Local Time) from K1YT Reporting Station
Broken Clouds Broken Clouds  
Wind Chill:   Ceiling: 800
Heat Index:   Visibility: 10mi
Dew Point:   Wind: 2mph
Humidity: 85%   Direction: 300°WNW
Pressure: 29.94"   Gusts: NA
Location:  46.65°N, 120.53°W
Report Text: K1YT 192056Z AUTO 30002KT 10SM BKN008 05/03 A2994 RMK AO2 SLPNO T00530030 53003
Loading
Personal Weather Stations






























Interactive Weather Map New forecast layout! Learn more

10-Day Weather Forecast

Advertisements
Track Severe Weather on mobile